Time;durP1;ratioP1;P1;durP2;ratioP2;P2;SDS_P1;SDS_P2;PMS_P1;PMS_P2;Temp;Humidity;BMP_temperature;BMP_pressure;BME280_temperature;BME280_humidity;BME280_pressure;Samples;Min_cycle;Max_cycle;Signal;HPM_P1;HPM_P2
2021/12/19 00:09:05;;;;;;;10.90;6.65;;;7.30;99.90;;;;;;5127550;27;20042;-69
2021/12/19 00:11:32;;;;;;;13.18;8.38;;;7.40;99.90;;;;;;5110383;27;20408;-68
2021/12/19 00:13:59;;;;;;;13.02;7.43;;;7.50;99.90;;;;;;5108272;27;20039;-69
2021/12/19 00:16:25;;;;;;;9.55;6.35;;;7.30;99.90;;;;;;5092111;27;20368;-69
2021/12/19 00:18:53;;;;;;;12.82;6.97;;;7.30;99.90;;;;;;5107935;27;20043;-68
2021/12/19 00:21:20;;;;;;;10.93;7.50;;;7.30;99.90;;;;;;5100498;27;20070;-69
2021/12/19 00:23:47;;;;;;;9.52;5.85;;;7.30;99.90;;;;;;5107059;27;20073;-68
2021/12/19 00:26:15;;;;;;;9.27;5.68;;;7.30;99.90;;;;;;5127025;27;20524;-69
2021/12/19 00:28:41;;;;;;;9.98;6.00;;;7.30;99.90;;;;;;5124359;27;20394;-69
2021/12/19 00:31:08;;;;;;;9.07;5.63;;;7.30;99.90;;;;;;5107889;27;20062;-69
2021/12/19 00:33:35;;;;;;;8.18;4.78;;;7.30;99.90;;;;;;5088052;27;20069;-68
2021/12/19 00:36:01;;;;;;;8.80;4.57;;;7.30;99.90;;;;;;5105222;27;20047;-68
2021/12/19 00:38:27;;;;;;;6.80;4.25;;;7.30;99.90;;;;;;5107935;27;20145;-69
2021/12/19 00:40:53;;;;;;;8.27;4.88;;;7.30;99.90;;;;;;5100011;27;20123;-69
2021/12/19 00:46:04;;;;;;;6.45;4.57;;;7.30;99.90;;;;;;5106123;27;20040;-69
2021/12/19 00:48:30;;;;;;;7.18;4.30;;;7.30;99.90;;;;;;5126478;27;20042;-69
2021/12/19 00:50:56;;;;;;;8.52;4.68;;;7.30;99.90;;;;;;5091722;27;20736;-68
2021/12/19 00:53:22;;;;;;;8.55;4.93;;;7.30;99.90;;;;;;5107453;27;20043;-69
2021/12/19 00:55:47;;;;;;;7.60;4.63;;;7.30;99.90;;;;;;5108110;27;20039;-68
2021/12/19 00:58:13;;;;;;;8.55;5.07;;;7.30;99.90;;;;;;5107297;27;20126;-69
2021/12/19 01:00:39;;;;;;;9.02;4.78;;;7.30;99.90;;;;;;5106601;28;20047;-69
2021/12/19 01:03:05;;;;;;;10.27;5.20;;;7.30;99.90;;;;;;5102861;27;20050;-69
2021/12/19 01:05:34;;;;;;;10.77;5.15;;;7.30;99.90;;;;;;5106556;27;20471;-69
2021/12/19 01:08:00;;;;;;;8.65;4.72;;;7.30;99.90;;;;;;5088283;27;20050;-69
2021/12/19 01:10:26;;;;;;;7.57;5.18;;;7.30;99.90;;;;;;5100846;27;20051;-69
2021/12/19 01:12:52;;;;;;;6.13;4.15;;;7.30;99.90;;;;;;5122899;27;20043;-69
2021/12/19 01:15:19;;;;;;;7.88;4.70;;;7.40;99.90;;;;;;5105457;27;20037;-69
2021/12/19 01:17:44;;;;;;;7.65;4.65;;;7.60;99.90;;;;;;5086194;27;20251;-69
2021/12/19 01:20:18;;;;;;;7.95;4.82;;;7.40;99.90;;;;;;5087347;27;20050;-68
2021/12/19 01:22:44;;;;;;;7.93;4.82;;;7.30;99.90;;;;;;5104523;27;20382;-68
2021/12/19 01:25:10;;;;;;;8.65;4.95;;;7.30;99.90;;;;;;5086341;28;20474;-69
2021/12/19 01:27:36;;;;;;;6.75;4.45;;;7.50;99.90;;;;;;5095720;27;20039;-68
2021/12/19 01:30:04;;;;;;;9.40;4.97;;;7.30;99.90;;;;;;5103477;27;20535;-69
2021/12/19 01:32:29;;;;;;;8.65;4.93;;;7.30;99.90;;;;;;5103741;27;20034;-68
2021/12/19 01:34:55;;;;;;;9.32;5.10;;;7.30;99.90;;;;;;5105236;27;20051;-69
2021/12/19 01:37:20;;;;;;;9.55;4.97;;;7.30;99.90;;;;;;5103407;27;20047;-68
2021/12/19 01:39:46;;;;;;;7.05;4.53;;;7.30;99.90;;;;;;5103104;27;20379;-68
2021/12/19 01:42:12;;;;;;;8.65;4.50;;;7.30;99.90;;;;;;5104053;27;20039;-69
2021/12/19 01:44:38;;;;;;;8.55;5.03;;;7.70;99.90;;;;;;5100698;28;20055;-68
2021/12/19 01:47:05;;;;;;;7.72;4.78;;;7.40;99.90;;;;;;5105273;27;20494;-69
2021/12/19 01:49:31;;;;;;;8.10;4.40;;;7.40;99.90;;;;;;5105659;27;20065;-69
2021/12/19 01:51:58;;;;;;;7.97;4.57;;;7.40;99.90;;;;;;5107974;27;20657;-69
2021/12/19 01:54:25;;;;;;;6.05;3.88;;;7.40;99.90;;;;;;5105651;28;20375;-69
2021/12/19 01:56:51;;;;;;;5.82;4.28;;;7.40;99.90;;;;;;5086673;27;20487;-68
2021/12/19 01:59:16;;;;;;;8.05;4.15;;;7.40;99.90;;;;;;5102197;28;20035;-69
2021/12/19 02:01:52;;;;;;;4.90;3.28;;;7.50;99.90;;;;;;5090096;27;20071;-69
2021/12/19 02:04:19;;;;;;;4.45;3.03;;;7.40;99.90;;;;;;5106958;27;20114;-69
2021/12/19 02:06:46;;;;;;;4.40;2.65;;;7.40;99.90;;;;;;5103159;28;20490;-69
2021/12/19 02:09:11;;;;;;;5.45;3.00;;;7.50;99.90;;;;;;5081844;28;20043;-69
2021/12/19 02:11:40;;;;;;;5.03;3.28;;;7.50;99.90;;;;;;5105270;28;20126;-69
2021/12/19 02:14:06;;;;;;;7.38;3.50;;;7.40;99.90;;;;;;5102152;28;20082;-68
2021/12/19 02:16:32;;;;;;;5.28;3.60;;;7.30;99.90;;;;;;5102405;28;20043;-69
2021/12/19 02:18:59;;;;;;;4.28;2.72;;;7.30;99.90;;;;;;5099717;28;20100;-69
2021/12/19 02:21:25;;;;;;;6.13;3.15;;;7.30;99.90;;;;;;5101586;28;20639;-68
2021/12/19 02:23:51;;;;;;;5.85;3.40;;;7.40;99.90;;;;;;5102165;28;20042;-69
2021/12/19 02:26:17;;;;;;;5.88;3.00;;;7.30;99.90;;;;;;5105060;28;20043;-69
2021/12/19 02:28:43;;;;;;;5.80;3.53;;;7.40;99.90;;;;;;5124007;27;20035;-69
2021/12/19 02:31:09;;;;;;;5.68;3.40;;;7.40;99.90;;;;;;5103593;28;20039;-68
2021/12/19 02:33:40;;;;;;;8.40;3.30;;;7.40;99.90;;;;;;5087794;28;20436;-69
2021/12/19 02:49:24;;;;;;;3.88;2.15;;;7.30;99.90;;;;;;5098237;28;20035;-69
2021/12/19 02:51:52;;;;;;;3.08;1.83;;;7.30;99.90;;;;;;5103041;28;20035;-68
2021/12/19 02:54:19;;;;;;;3.22;1.83;;;7.30;99.90;;;;;;5100775;28;20420;-68
2021/12/19 02:56:45;;;;;;;3.60;2.00;;;7.20;99.90;;;;;;5086442;28;20051;-69
2021/12/19 02:59:10;;;;;;;4.22;2.25;;;7.20;99.90;;;;;;5084814;28;20035;-69
2021/12/19 03:01:36;;;;;;;3.53;1.70;;;7.20;99.90;;;;;;5103393;28;20368;-69
2021/12/19 03:04:02;;;;;;;3.72;1.75;;;7.30;99.90;;;;;;5085062;28;20046;-69
2021/12/19 03:06:28;;;;;;;4.00;1.98;;;7.20;99.90;;;;;;5082317;28;20542;-69
2021/12/19 03:08:57;;;;;;;4.25;1.90;;;7.30;99.90;;;;;;5122879;28;20122;-68
2021/12/19 03:19:19;;;;;;;3.65;1.88;;;7.20;99.90;;;;;;5102765;28;20039;-68
2021/12/19 03:21:45;;;;;;;3.63;1.92;;;7.20;99.90;;;;;;5103205;28;20099;-69
2021/12/19 03:24:11;;;;;;;5.53;2.10;;;7.40;99.90;;;;;;5121282;27;20077;-69
2021/12/19 03:26:36;;;;;;;3.35;1.95;;;7.20;99.90;;;;;;5085850;27;20032;-69
2021/12/19 03:29:03;;;;;;;3.97;1.83;;;7.30;99.90;;;;;;5108902;27;20079;-68
2021/12/19 03:31:29;;;;;;;3.80;1.70;;;7.20;99.90;;;;;;5104489;27;20390;-69
2021/12/19 03:33:55;;;;;;;4.07;2.00;;;7.20;99.90;;;;;;5104252;27;20043;-69
2021/12/19 03:36:21;;;;;;;1.75;1.05;;;7.20;99.90;;;;;;5104702;28;20042;-68
2021/12/19 03:38:46;;;;;;;2.58;1.30;;;7.20;99.90;;;;;;5125480;27;20122;-68
2021/12/19 03:43:41;;;;;;;2.65;1.23;;;7.20;99.90;;;;;;5108816;27;20429;-69
2021/12/19 03:46:07;;;;;;;1.45;0.82;;;7.10;99.90;;;;;;5105604;27;20032;-69
2021/12/19 03:48:33;;;;;;;1.60;0.75;;;7.20;99.90;;;;;;5104648;28;20066;-68
2021/12/19 03:50:59;;;;;;;2.28;0.90;;;7.00;99.90;;;;;;5103768;27;20051;-69
2021/12/19 03:53:25;;;;;;;3.08;1.10;;;7.10;99.90;;;;;;5103859;27;20112;-68
2021/12/19 03:55:52;;;;;;;1.63;1.00;;;7.00;99.90;;;;;;5087760;27;20441;-69
2021/12/19 03:58:19;;;;;;;2.47;1.20;;;6.90;99.90;;;;;;5106303;27;20035;-68
2021/12/19 04:00:46;;;;;;;1.85;1.05;;;6.90;99.90;;;;;;5104272;27;20062;-69
2021/12/19 04:03:19;;;;;;;2.72;1.20;;;6.90;99.90;;;;;;5109045;27;20035;-68
2021/12/19 04:05:47;;;;;;;2.00;0.98;;;6.90;99.90;;;;;;5103819;27;20043;-69
2021/12/19 04:08:13;;;;;;;3.15;1.20;;;6.80;99.90;;;;;;5098348;28;20443;-68
2021/12/19 04:10:39;;;;;;;1.60;1.13;;;6.90;99.90;;;;;;5101111;27;20035;-69
2021/12/19 04:13:04;;;;;;;2.22;1.10;;;6.80;99.90;;;;;;5107109;27;20521;-69
2021/12/19 04:15:30;;;;;;;1.92;0.93;;;6.80;99.90;;;;;;5109032;27;20375;-69
2021/12/19 04:17:56;;;;;;;3.30;1.17;;;6.90;99.90;;;;;;5108311;27;20058;-69
2021/12/19 04:20:22;;;;;;;2.50;1.05;;;6.80;99.90;;;;;;5107158;27;20047;-69
2021/12/19 04:22:49;;;;;;;2.90;1.15;;;6.90;99.90;;;;;;5105663;27;20091;-69
2021/12/19 04:25:15;;;;;;;2.38;1.10;;;6.80;99.90;;;;;;5107182;27;20039;-69
2021/12/19 04:27:42;;;;;;;1.45;1.00;;;6.80;99.90;;;;;;5106314;27;20038;-69
2021/12/19 04:30:11;;;;;;;2.08;0.90;;;7.00;99.90;;;;;;5110262;27;20463;-69
2021/12/19 04:32:42;;;;;;;2.53;1.00;;;6.80;99.90;;;;;;5086882;27;20520;-68
2021/12/19 04:35:11;;;;;;;4.43;0.80;;;6.80;99.90;;;;;;5105318;27;20398;-68
2021/12/19 04:40:27;;;;;;;1.67;0.88;;;7.20;99.90;;;;;;5107379;27;20123;-69
2021/12/19 04:59:05;;;;;;;2.13;0.98;;;6.80;99.90;;;;;;5093827;27;20050;-69
2021/12/19 05:01:57;;;;;;;2.75;1.15;;;6.80;99.90;;;;;;5110034;27;20035;-68
2021/12/19 05:15:27;;;;;;;1.63;0.98;;;6.80;99.90;;;;;;5105885;27;20055;-69
2021/12/19 05:17:57;;;;;;;2.17;0.80;;;6.70;99.90;;;;;;5094625;27;20059;-69
2021/12/19 05:20:27;;;;;;;1.10;0.65;;;6.80;99.90;;;;;;5106099;27;20493;-68
2021/12/19 05:22:57;;;;;;;2.20;0.80;;;6.70;99.90;;;;;;5102166;27;20054;-69
2021/12/19 05:25:23;;;;;;;1.15;0.80;;;6.80;99.90;;;;;;5101607;27;20324;-69
2021/12/19 05:27:52;;;;;;;1.50;0.88;;;6.80;99.90;;;;;;5104599;27;20043;-69
2021/12/19 05:30:18;;;;;;;1.33;0.80;;;6.70;99.90;;;;;;5121688;27;20035;-69
2021/12/19 05:32:45;;;;;;;1.95;0.98;;;6.70;99.90;;;;;;5101331;27;20653;-69
2021/12/19 05:35:15;;;;;;;1.38;0.98;;;6.70;99.90;;;;;;5107515;27;20038;-69
2021/12/19 05:45:55;;;;;;;4.03;1.30;;;6.70;99.90;;;;;;5123528;27;20044;-69
2021/12/19 05:48:21;;;;;;;3.72;1.25;;;6.70;99.90;;;;;;5106878;27;20047;-69
2021/12/19 05:50:46;;;;;;;3.22;1.15;;;6.80;99.90;;;;;;5103234;28;20058;-68
2021/12/19 05:53:13;;;;;;;2.30;1.33;;;6.70;99.90;;;;;;5104132;27;20039;-69
2021/12/19 05:55:39;;;;;;;3.15;1.50;;;6.70;99.90;;;;;;5107372;27;20121;-69
2021/12/19 05:58:05;;;;;;;3.97;1.27;;;6.60;99.90;;;;;;5106293;27;20054;-69
2021/12/19 06:00:32;;;;;;;2.33;1.02;;;6.70;99.90;;;;;;5101372;27;20489;-69
2021/12/19 06:02:59;;;;;;;3.13;1.30;;;6.70;99.90;;;;;;5086300;27;20123;-69
2021/12/19 06:05:25;;;;;;;2.83;1.67;;;6.90;99.90;;;;;;5099128;27;20039;-69
2021/12/19 06:07:51;;;;;;;3.63;1.63;;;6.70;99.90;;;;;;5124712;27;20050;-69
2021/12/19 06:10:17;;;;;;;3.65;1.52;;;7.00;99.90;;;;;;5119445;27;20115;-69
2021/12/19 06:12:44;;;;;;;2.92;1.70;;;6.70;99.90;;;;;;5088908;27;20389;-69
2021/12/19 06:15:10;;;;;;;5.00;1.60;;;6.70;99.90;;;;;;5104078;27;20106;-69
2021/12/19 06:17:38;;;;;;;8.20;2.60;;;6.80;99.90;;;;;;5099895;28;20062;-69
2021/12/19 06:20:05;;;;;;;5.75;2.92;;;6.80;99.90;;;;;;5087601;28;20043;-69
2021/12/19 06:22:30;;;;;;;6.80;3.20;;;6.80;99.90;;;;;;5098966;28;20114;-69
2021/12/19 06:24:56;;;;;;;8.48;3.53;;;6.80;99.90;;;;;;5090624;28;20131;-69
2021/12/19 06:27:22;;;;;;;6.28;3.75;;;6.80;99.90;;;;;;5091477;28;20088;-69
2021/12/19 06:29:49;;;;;;;7.32;3.40;;;6.80;99.90;;;;;;5078505;28;20039;-69
2021/12/19 06:32:16;;;;;;;6.00;3.40;;;6.80;99.90;;;;;;5098969;28;20134;-68
2021/12/19 06:34:42;;;;;;;9.52;4.20;;;6.80;99.90;;;;;;5102090;28;20085;-69
2021/12/19 06:37:09;;;;;;;12.20;4.10;;;6.80;99.90;;;;;;5099345;28;20044;-69
2021/12/19 06:39:36;;;;;;;7.78;3.88;;;6.90;99.90;;;;;;5103458;28;20050;-69
2021/12/19 06:42:04;;;;;;;8.68;3.50;;;6.90;99.90;;;;;;5105245;28;20043;-68
2021/12/19 06:44:30;;;;;;;10.35;4.18;;;6.90;99.90;;;;;;5094491;28;21301;-69
2021/12/19 06:46:56;;;;;;;9.63;4.00;;;6.90;99.90;;;;;;5083153;28;20183;-69
2021/12/19 06:49:21;;;;;;;7.15;3.83;;;6.90;99.90;;;;;;5103799;28;20137;-69
2021/12/19 06:51:47;;;;;;;9.75;4.03;;;6.90;99.90;;;;;;5101679;28;20039;-69
2021/12/19 06:54:13;;;;;;;9.27;4.03;;;6.80;99.90;;;;;;5101346;28;20038;-69
2021/12/19 06:56:38;;;;;;;9.48;4.50;;;6.90;99.90;;;;;;5099878;28;20043;-69
2021/12/19 06:59:04;;;;;;;15.98;5.22;;;6.90;99.90;;;;;;5101096;27;20059;-68
2021/12/19 07:01:30;;;;;;;12.95;6.30;;;7.30;99.90;;;;;;5103357;28;20027;-68
2021/12/19 07:03:56;;;;;;;13.95;6.28;;;7.00;99.90;;;;;;5107839;27;20035;-69
2021/12/19 07:06:21;;;;;;;15.38;7.13;;;6.90;99.90;;;;;;5107701;28;20028;-69
2021/12/19 07:08:47;;;;;;;14.35;7.10;;;6.90;99.90;;;;;;5102432;27;20750;-69
2021/12/19 07:11:13;;;;;;;18.70;7.80;;;6.90;99.90;;;;;;5102117;27;20049;-69
2021/12/19 07:13:39;;;;;;;16.50;7.47;;;6.90;99.90;;;;;;5107232;27;20046;-69
2021/12/19 07:16:06;;;;;;;16.65;7.68;;;6.90;99.90;;;;;;5092041;27;20035;-69
2021/12/19 07:18:32;;;;;;;16.50;7.10;;;7.00;99.90;;;;;;5105498;27;20055;-69
2021/12/19 07:20:58;;;;;;;20.70;8.05;;;7.00;99.90;;;;;;5090235;28;20047;-69
2021/12/19 07:23:23;;;;;;;19.23;7.35;;;7.00;99.90;;;;;;5110768;27;20047;-69
2021/12/19 07:25:50;;;;;;;19.70;7.90;;;7.00;99.90;;;;;;5108165;28;20047;-69
2021/12/19 07:28:16;;;;;;;22.58;8.25;;;7.00;99.90;;;;;;5128131;27;20031;-69
2021/12/19 07:30:42;;;;;;;25.00;8.30;;;7.00;99.90;;;;;;5101376;27;20042;-69
2021/12/19 07:33:09;;;;;;;18.40;7.60;;;7.10;99.90;;;;;;5109452;27;20122;-69
2021/12/19 07:35:38;;;;;;;17.27;8.07;;;7.10;99.90;;;;;;5094580;27;20447;-69
2021/12/19 07:38:09;;;;;;;20.58;8.63;;;7.10;99.90;;;;;;5101647;27;20043;-69
2021/12/19 07:40:36;;;;;;;19.77;7.80;;;7.10;99.90;;;;;;5075757;27;20028;-69
2021/12/19 07:43:11;;;;;;;21.27;8.75;;;7.00;99.90;;;;;;5100332;27;20051;-68
2021/12/19 07:45:37;;;;;;;21.80;8.23;;;7.10;99.90;;;;;;5071780;27;20077;-68
2021/12/19 07:48:03;;;;;;;23.83;8.30;;;7.10;99.90;;;;;;5107520;27;20432;-68
2021/12/19 07:50:30;;;;;;;23.13;8.70;;;7.00;99.90;;;;;;5123256;27;20407;-68
2021/12/19 07:52:56;;;;;;;18.55;7.63;;;7.10;99.90;;;;;;5103910;27;20038;-68
2021/12/19 07:55:23;;;;;;;19.48;6.93;;;7.10;99.90;;;;;;5106862;28;20093;-68
2021/12/19 07:57:49;;;;;;;14.52;6.30;;;7.00;99.90;;;;;;5107303;27;20396;-68
2021/12/19 08:00:16;;;;;;;19.75;6.75;;;7.10;99.90;;;;;;5129354;27;20063;-68
2021/12/19 08:02:45;;;;;;;21.17;6.35;;;7.00;99.90;;;;;;5110425;27;20031;-68
2021/12/19 08:05:11;;;;;;;14.35;5.75;;;7.10;99.90;;;;;;5107532;27;20078;-68
2021/12/19 08:07:39;;;;;;;20.00;6.57;;;7.10;99.90;;;;;;5078610;27;20035;-69
2021/12/19 08:12:38;;;;;;;13.15;5.45;;;7.10;99.90;;;;;;5106219;27;20109;-68
2021/12/19 08:15:05;;;;;;;11.13;4.38;;;7.40;99.90;;;;;;5103999;27;20043;-68
2021/12/19 08:17:31;;;;;;;20.92;4.85;;;7.10;99.90;;;;;;5105216;28;20149;-68
2021/12/19 08:19:58;;;;;;;15.43;4.68;;;7.60;99.90;;;;;;5084196;28;20047;-68
2021/12/19 08:22:25;;;;;;;14.40;4.80;;;7.10;99.90;;;;;;5106551;28;20039;-68
2021/12/19 08:24:52;;;;;;;14.73;4.43;;;7.10;99.90;;;;;;5105424;28;20044;-68
2021/12/19 08:27:17;;;;;;;15.63;4.75;;;7.20;99.90;;;;;;5102296;28;20506;-68
2021/12/19 08:29:43;;;;;;;17.98;5.10;;;7.60;99.90;;;;;;5101335;28;20043;-69
2021/12/19 08:32:09;;;;;;;17.38;4.88;;;7.10;99.90;;;;;;5098963;28;20499;-68
2021/12/19 08:34:36;;;;;;;14.15;5.25;;;7.10;99.90;;;;;;5087587;28;20418;-68
2021/12/19 08:37:02;;;;;;;15.52;4.90;;;7.10;99.90;;;;;;5105305;28;20051;-68
2021/12/19 08:39:31;;;;;;;14.57;4.95;;;7.10;99.90;;;;;;5104343;28;20036;-68
2021/12/19 08:41:57;;;;;;;14.13;4.70;;;7.10;99.90;;;;;;5104027;28;20104;-68
2021/12/19 08:44:23;;;;;;;14.88;4.95;;;7.10;99.90;;;;;;5104353;28;20391;-68
2021/12/19 08:46:49;;;;;;;16.15;5.38;;;7.10;99.90;;;;;;5105888;28;20043;-68
2021/12/19 08:49:15;;;;;;;14.45;4.90;;;7.10;99.90;;;;;;5104804;28;20040;-68
2021/12/19 08:51:40;;;;;;;14.15;5.05;;;7.10;99.90;;;;;;5104504;28;20039;-68
2021/12/19 08:54:07;;;;;;;19.25;5.90;;;7.10;99.90;;;;;;5098634;28;20080;-68
2021/12/19 08:56:33;;;;;;;14.30;4.82;;;7.10;99.90;;;;;;5088869;28;20042;-68
2021/12/19 08:59:00;;;;;;;22.08;5.40;;;7.10;99.90;;;;;;5105284;28;20051;-68
2021/12/19 09:01:26;;;;;;;16.90;4.82;;;7.40;99.90;;;;;;5103733;28;20039;-68
2021/12/19 09:03:52;;;;;;;11.30;4.38;;;7.30;99.90;;;;;;5099927;28;20032;-68
2021/12/19 09:06:17;;;;;;;12.35;4.57;;;7.10;99.90;;;;;;5099062;28;20031;-68
2021/12/19 09:08:43;;;;;;;14.48;3.83;;;7.20;99.90;;;;;;5101064;28;20028;-68
2021/12/19 09:11:09;;;;;;;10.65;3.45;;;7.10;99.90;;;;;;5104532;28;20071;-68
2021/12/19 09:13:35;;;;;;;10.88;3.60;;;7.20;99.90;;;;;;5104252;28;20051;-68
2021/12/19 09:16:04;;;;;;;8.45;3.70;;;7.20;99.90;;;;;;5101402;28;20044;-67
2021/12/19 09:18:30;;;;;;;12.43;3.45;;;7.10;99.90;;;;;;5097879;28;20055;-68
2021/12/19 09:20:56;;;;;;;9.85;3.42;;;7.10;99.90;;;;;;5102442;28;20027;-68
2021/12/19 09:23:23;;;;;;;11.50;3.50;;;8.10;99.90;;;;;;5103470;28;20036;-68
2021/12/19 09:25:49;;;;;;;11.75;3.40;;;7.20;99.90;;;;;;5106096;28;20444;-67
2021/12/19 09:28:15;;;;;;;16.02;4.72;;;7.20;99.90;;;;;;5101072;28;20050;-68
2021/12/19 09:30:45;;;;;;;12.98;3.80;;;7.20;99.90;;;;;;5101426;28;20423;-68
2021/12/19 09:33:11;;;;;;;11.18;3.75;;;7.20;99.90;;;;;;5104989;28;20082;-67
2021/12/19 09:35:37;;;;;;;13.90;4.13;;;7.20;99.90;;;;;;5105907;28;20161;-68
2021/12/19 09:38:04;;;;;;;11.25;3.65;;;7.20;99.90;;;;;;5104677;28;20036;-68
2021/12/19 09:40:36;;;;;;;11.50;3.70;;;7.20;99.90;;;;;;5103298;28;20530;-68
2021/12/19 09:43:10;;;;;;;9.48;3.95;;;7.20;99.90;;;;;;5106623;28;20564;-68
2021/12/19 09:45:37;;;;;;;13.90;5.03;;;7.30;99.90;;;;;;5104680;28;20039;-68
2021/12/19 09:48:03;;;;;;;12.52;4.13;;;7.20;99.90;;;;;;5103448;28;20032;-68
2021/12/19 09:50:30;;;;;;;15.70;3.72;;;7.30;99.90;;;;;;5100114;28;20044;-68
2021/12/19 09:52:56;;;;;;;11.32;4.35;;;7.30;99.90;;;;;;5087713;28;20076;-68
2021/12/19 09:55:22;;;;;;;13.55;4.43;;;7.40;99.90;;;;;;5104958;28;20039;-68
2021/12/19 09:57:49;;;;;;;19.55;4.20;;;7.30;99.90;;;;;;5105706;28;20044;-68
2021/12/19 10:00:16;;;;;;;8.95;3.92;;;7.30;99.90;;;;;;5103182;28;20047;-68
2021/12/19 10:02:41;;;;;;;13.98;4.20;;;7.30;99.90;;;;;;5104306;28;20405;-68
2021/12/19 10:05:20;;;;;;;12.25;3.60;;;7.40;99.90;;;;;;5086129;28;20100;-68
2021/12/19 10:07:53;;;;;;;12.70;4.15;;;7.40;99.90;;;;;;5104907;28;20055;-68
2021/12/19 10:10:27;;;;;;;12.05;3.47;;;7.40;99.90;;;;;;5102622;28;20043;-68
2021/12/19 10:12:58;;;;;;;12.27;3.80;;;7.50;99.90;;;;;;5104526;28;20063;-68
2021/12/19 10:15:33;;;;;;;10.73;4.00;;;7.50;99.90;;;;;;5104777;28;20040;-67
2021/12/19 10:18:26;;;;;;;11.73;4.10;;;7.50;99.90;;;;;;5104622;28;20043;-68
2021/12/19 10:20:59;;;;;;;10.32;3.88;;;7.50;99.90;;;;;;5092675;28;20043;-68
2021/12/19 10:23:28;;;;;;;10.77;3.50;;;7.60;99.90;;;;;;5100652;28;20100;-68
2021/12/19 10:25:55;;;;;;;8.88;3.58;;;7.70;99.90;;;;;;5099739;28;20092;-68
2021/12/19 10:28:20;;;;;;;11.70;3.45;;;7.70;99.90;;;;;;5106736;28;20382;-68
2021/12/19 10:30:48;;;;;;;12.18;3.40;;;7.60;99.90;;;;;;5088442;28;20044;-68
2021/12/19 10:33:16;;;;;;;12.50;3.75;;;7.70;99.90;;;;;;5097741;28;20051;-68
2021/12/19 10:35:44;;;;;;;10.95;3.95;;;7.90;99.90;;;;;;5109584;28;20070;-68
2021/12/19 10:38:18;;;;;;;9.32;2.88;;;7.70;99.90;;;;;;5110217;28;20036;-68
2021/12/19 10:40:49;;;;;;;13.60;4.15;;;7.70;99.90;;;;;;5105109;28;20051;-68
2021/12/19 10:43:17;;;;;;;12.57;3.42;;;7.70;99.90;;;;;;5101069;28;20040;-67
2021/12/19 10:45:51;;;;;;;11.90;3.70;;;7.70;99.90;;;;;;5107959;28;20040;-68
2021/12/19 10:48:27;;;;;;;12.38;3.35;;;7.70;99.90;;;;;;5107163;28;20043;-68
2021/12/19 10:50:55;;;;;;;10.93;3.92;;;7.70;99.90;;;;;;5106475;28;20371;-68
2021/12/19 10:53:29;;;;;;;15.88;3.88;;;7.80;99.90;;;;;;5106160;28;20043;-68
2021/12/19 10:55:55;;;;;;;17.05;3.67;;;7.70;99.90;;;;;;5106797;28;20043;-68
2021/12/19 10:58:27;;;;;;;11.43;3.22;;;7.70;99.90;;;;;;5108049;28;20101;-68
2021/12/19 11:01:04;;;;;;;13.82;3.70;;;7.70;99.90;;;;;;5125082;27;20089;-68
2021/12/19 11:03:37;;;;;;;10.40;3.20;;;7.70;99.90;;;;;;5106403;28;20044;-68
2021/12/19 11:06:15;;;;;;;11.32;3.45;;;7.70;99.90;;;;;;5107305;28;20375;-68
2021/12/19 11:08:42;;;;;;;17.60;3.90;;;7.70;99.90;;;;;;5106381;28;20056;-68
2021/12/19 11:11:08;;;;;;;14.05;3.50;;;7.70;99.90;;;;;;5103894;28;20467;-67
2021/12/19 11:13:35;;;;;;;13.23;4.35;;;7.70;99.90;;;;;;5100373;28;20636;-68
2021/12/19 11:16:02;;;;;;;12.05;4.55;;;7.70;99.90;;;;;;5107194;28;20130;-68
2021/12/19 11:18:27;;;;;;;14.75;4.68;;;7.70;99.90;;;;;;5100807;28;20052;-68
2021/12/19 11:20:53;;;;;;;11.93;3.63;;;7.70;99.90;;;;;;5108810;27;20036;-68
2021/12/19 11:23:19;;;;;;;9.80;3.88;;;7.80;99.90;;;;;;5085361;28;20054;-68
2021/12/19 11:25:45;;;;;;;12.30;3.13;;;7.80;99.90;;;;;;5088083;28;20043;-68
2021/12/19 11:28:11;;;;;;;10.25;3.78;;;7.70;99.90;;;;;;5105089;28;20123;-68
2021/12/19 11:30:38;;;;;;;17.10;3.50;;;7.80;99.90;;;;;;5100148;28;20129;-67
2021/12/19 11:33:51;;;;;;;12.13;3.95;;;7.80;99.90;;;;;;5106039;28;20033;-68
2021/12/19 11:36:18;;;;;;;13.48;4.13;;;7.70;99.90;;;;;;5059524;28;20495;-68
2021/12/19 11:38:45;;;;;;;12.77;3.75;;;7.70;99.90;;;;;;5100208;28;20561;-68
2021/12/19 11:41:11;;;;;;;14.88;3.53;;;7.70;99.90;;;;;;5106919;28;20187;-68
2021/12/19 11:43:38;;;;;;;8.48;3.17;;;7.80;99.90;;;;;;5104804;28;20095;-68
2021/12/19 11:46:13;;;;;;;10.13;3.28;;;7.70;99.90;;;;;;5105332;28;20039;-68
2021/12/19 11:48:40;;;;;;;13.68;3.60;;;7.80;99.90;;;;;;5105942;28;20396;-68
2021/12/19 11:51:20;;;;;;;19.02;8.10;;;7.80;99.90;;;;;;5103547;28;20044;-68
2021/12/19 11:53:46;;;;;;;10.75;4.00;;;7.80;99.90;;;;;;5098615;28;20475;-68
2021/12/19 11:56:16;;;;;;;11.95;5.38;;;7.80;99.90;;;;;;5088780;28;20043;-68
2021/12/19 11:58:55;;;;;;;12.07;4.75;;;7.80;99.90;;;;;;5101751;28;20036;-68
2021/12/19 12:01:33;;;;;;;13.10;3.72;;;7.80;99.90;;;;;;5103354;28;20047;-68
2021/12/19 12:04:21;;;;;;;17.42;4.75;;;7.90;99.90;;;;;;5102478;28;20031;-68
2021/12/19 12:06:58;;;;;;;14.07;5.03;;;7.90;99.90;;;;;;5105323;28;20040;-68
2021/12/19 12:09:39;;;;;;;18.27;4.50;;;7.90;99.90;;;;;;5103858;28;20091;-68
2021/12/19 12:12:12;;;;;;;12.20;3.80;;;8.00;99.90;;;;;;5098184;28;20048;-67
2021/12/19 12:15:02;;;;;;;12.48;4.43;;;7.90;99.90;;;;;;5085682;28;20032;-68
2021/12/19 12:17:38;;;;;;;11.68;3.65;;;7.90;99.90;;;;;;5104534;27;20056;-68
2021/12/19 12:20:16;;;;;;;14.32;5.28;;;7.80;99.90;;;;;;5124847;27;20143;-68
2021/12/19 12:23:05;;;;;;;16.33;4.07;;;7.90;99.90;;;;;;5123083;27;20536;-68
2021/12/19 12:25:34;;;;;;;15.25;4.28;;;7.90;99.90;;;;;;5108480;27;20035;-68
2021/12/19 12:28:08;;;;;;;15.88;4.03;;;7.90;99.90;;;;;;5089219;27;20444;-68
2021/12/19 12:30:45;;;;;;;14.73;3.72;;;7.90;99.90;;;;;;5106461;27;20967;-68
2021/12/19 12:33:16;;;;;;;10.65;3.65;;;7.90;99.90;;;;;;5120839;27;20054;-68
2021/12/19 12:35:45;;;;;;;15.75;3.45;;;7.90;99.90;;;;;;5091246;27;20381;-68
2021/12/19 12:38:12;;;;;;;12.75;3.75;;;7.90;99.90;;;;;;5108720;27;20043;-68
2021/12/19 12:41:00;;;;;;;15.43;3.60;;;7.90;99.90;;;;;;5105032;27;20084;-67
2021/12/19 12:43:39;;;;;;;12.90;3.38;;;7.90;99.90;;;;;;5124073;27;20019;-68
2021/12/19 12:46:15;;;;;;;17.60;4.45;;;7.90;99.90;;;;;;5108107;27;20475;-68
2021/12/19 12:48:54;;;;;;;13.27;3.92;;;7.90;99.90;;;;;;5108094;27;20051;-68
2021/12/19 12:51:41;;;;;;;12.45;3.78;;;8.00;99.90;;;;;;5125934;27;20097;-68
2021/12/19 12:54:10;;;;;;;13.25;3.92;;;8.00;99.90;;;;;;5107568;27;20039;-68
2021/12/19 12:56:45;;;;;;;13.00;3.30;;;8.00;99.90;;;;;;5107267;28;20390;-68
2021/12/19 12:59:14;;;;;;;14.75;3.03;;;8.00;99.90;;;;;;5107298;27;20107;-68
2021/12/19 13:01:50;;;;;;;13.85;3.03;;;8.20;99.90;;;;;;5106858;27;20364;-68
2021/12/19 13:04:26;;;;;;;12.07;2.78;;;8.00;99.90;;;;;;5088769;27;20039;-68
2021/12/19 13:07:03;;;;;;;8.07;2.30;;;8.00;99.90;;;;;;5089343;27;20035;-68
2021/12/19 13:09:49;;;;;;;13.80;2.83;;;8.00;99.90;;;;;;5105903;27;20042;-68
2021/12/19 13:12:16;;;;;;;13.93;3.50;;;8.00;99.90;;;;;;5107463;27;20031;-68
2021/12/19 13:14:51;;;;;;;13.77;3.20;;;8.00;99.90;;;;;;5108117;27;20131;-68
2021/12/19 13:17:21;;;;;;;11.43;3.13;;;8.00;99.90;;;;;;5102665;27;20039;-68
2021/12/19 13:20:01;;;;;;;7.53;2.55;;;8.00;99.90;;;;;;5106657;27;20506;-68
2021/12/19 13:22:29;;;;;;;16.45;3.10;;;8.00;99.90;;;;;;5104410;27;20051;-69
2021/12/19 13:24:59;;;;;;;13.32;3.08;;;8.00;99.90;;;;;;5104947;27;20043;-68
2021/12/19 13:27:31;;;;;;;17.63;3.67;;;8.00;99.90;;;;;;5101301;28;20559;-68
2021/12/19 13:30:06;;;;;;;11.55;2.97;;;8.00;99.90;;;;;;5100658;27;20039;-68
2021/12/19 13:32:37;;;;;;;19.58;3.35;;;8.00;99.90;;;;;;5099912;27;20548;-68
2021/12/19 13:35:16;;;;;;;16.48;3.63;;;8.00;99.90;;;;;;5082809;27;20096;-68
2021/12/19 13:38:03;;;;;;;14.73;3.30;;;7.90;99.90;;;;;;5101455;27;20039;-68
2021/12/19 13:40:51;;;;;;;18.52;4.90;;;8.00;99.90;;;;;;5106395;27;20039;-68
2021/12/19 13:43:32;;;;;;;16.15;5.93;;;8.00;99.90;;;;;;5087172;27;20047;-68
2021/12/19 13:46:00;;;;;;;19.75;4.88;;;8.00;99.90;;;;;;5101510;27;20054;-68
2021/12/19 13:48:27;;;;;;;19.65;4.68;;;8.00;99.90;;;;;;5104093;27;20046;-68
2021/12/19 13:51:12;;;;;;;20.25;4.25;;;8.10;99.90;;;;;;5104616;27;20613;-68
2021/12/19 13:53:42;;;;;;;11.75;4.00;;;8.00;99.90;;;;;;5107502;27;20042;-68
2021/12/19 13:56:29;;;;;;;13.35;4.05;;;7.90;99.90;;;;;;5103722;27;20125;-68
2021/12/19 13:59:00;;;;;;;12.98;2.97;;;8.00;99.90;;;;;;5102520;27;20047;-68
2021/12/19 14:01:29;;;;;;;13.40;2.90;;;7.90;99.90;;;;;;5119688;27;20076;-68
2021/12/19 14:04:04;;;;;;;17.25;3.58;;;7.90;99.90;;;;;;5102374;27;20039;-68
2021/12/19 14:06:37;;;;;;;16.90;3.45;;;7.90;99.90;;;;;;5108654;27;20051;-69
2021/12/19 14:09:13;;;;;;;17.25;3.47;;;7.90;99.90;;;;;;5101455;27;20039;-68
2021/12/19 14:11:42;;;;;;;13.68;3.22;;;7.90;99.90;;;;;;5096246;27;20039;-68
2021/12/19 14:14:28;;;;;;;15.25;2.92;;;7.90;99.90;;;;;;5080517;27;20639;-68